sensor_id;sensor_type;location;lat;lon;timestamp;P1;durP1;ratioP1;P2;durP2;ratioP2
29044;SDS011;16133;49.486;12.176;2023-11-21T00:01:15;4.88;;;2.13;;
29044;SDS011;16133;49.486;12.176;2023-11-21T00:03:40;3.45;;;2.17;;
29044;SDS011;16133;49.486;12.176;2023-11-21T00:06:06;5.53;;;1.88;;
29044;SDS011;16133;49.486;12.176;2023-11-21T00:08:34;4.03;;;1.80;;
29044;SDS011;16133;49.486;12.176;2023-11-21T00:11:00;2.42;;;1.48;;
29044;SDS011;16133;49.486;12.176;2023-11-21T00:13:25;3.45;;;1.85;;
29044;SDS011;16133;49.486;12.176;2023-11-21T00:15:51;4.18;;;1.90;;
29044;SDS011;16133;49.486;12.176;2023-11-21T00:18:16;5.00;;;2.20;;
29044;SDS011;16133;49.486;12.176;2023-11-21T00:20:41;4.78;;;1.88;;
29044;SDS011;16133;49.486;12.176;2023-11-21T00:23:07;4.18;;;1.88;;
29044;SDS011;16133;49.486;12.176;2023-11-21T00:25:34;8.15;;;2.00;;
29044;SDS011;16133;49.486;12.176;2023-11-21T00:27:59;3.47;;;2.00;;
29044;SDS011;16133;49.486;12.176;2023-11-21T00:30:26;3.15;;;1.75;;
29044;SDS011;16133;49.486;12.176;2023-11-21T00:32:52;5.07;;;2.47;;
29044;SDS011;16133;49.486;12.176;2023-11-21T00:35:18;2.85;;;1.70;;
29044;SDS011;16133;49.486;12.176;2023-11-21T00:37:43;5.90;;;2.20;;
29044;SDS011;16133;49.486;12.176;2023-11-21T00:40:09;4.30;;;1.77;;
29044;SDS011;16133;49.486;12.176;2023-11-21T00:42:35;4.40;;;2.13;;
29044;SDS011;16133;49.486;12.176;2023-11-21T00:45:00;5.05;;;2.22;;
29044;SDS011;16133;49.486;12.176;2023-11-21T00:47:25;4.32;;;2.05;;
29044;SDS011;16133;49.486;12.176;2023-11-21T00:49:51;3.00;;;1.70;;
29044;SDS011;16133;49.486;12.176;2023-11-21T00:52:16;5.40;;;2.13;;
29044;SDS011;16133;49.486;12.176;2023-11-21T00:54:41;3.08;;;1.83;;
29044;SDS011;16133;49.486;12.176;2023-11-21T00:57:07;4.78;;;1.80;;
29044;SDS011;16133;49.486;12.176;2023-11-21T00:59:33;4.72;;;1.60;;
29044;SDS011;16133;49.486;12.176;2023-11-21T01:01:59;3.40;;;1.60;;
29044;SDS011;16133;49.486;12.176;2023-11-21T01:04:26;7.70;;;1.50;;
29044;SDS011;16133;49.486;12.176;2023-11-21T01:06:52;3.13;;;1.67;;
29044;SDS011;16133;49.486;12.176;2023-11-21T01:09:17;6.05;;;2.08;;
29044;SDS011;16133;49.486;12.176;2023-11-21T01:11:43;4.57;;;1.98;;
29044;SDS011;16133;49.486;12.176;2023-11-21T01:14:09;7.15;;;2.83;;
29044;SDS011;16133;49.486;12.176;2023-11-21T01:16:35;2.42;;;1.73;;
29044;SDS011;16133;49.486;12.176;2023-11-21T01:19:00;4.40;;;2.63;;
29044;SDS011;16133;49.486;12.176;2023-11-21T01:21:26;4.57;;;1.92;;
29044;SDS011;16133;49.486;12.176;2023-11-21T01:23:53;5.25;;;1.77;;
29044;SDS011;16133;49.486;12.176;2023-11-21T01:26:18;3.95;;;1.73;;
29044;SDS011;16133;49.486;12.176;2023-11-21T01:28:44;3.95;;;1.70;;
29044;SDS011;16133;49.486;12.176;2023-11-21T01:31:09;1.73;;;1.50;;
29044;SDS011;16133;49.486;12.176;2023-11-21T01:33:34;7.95;;;2.30;;
29044;SDS011;16133;49.486;12.176;2023-11-21T01:36:00;7.10;;;1.80;;
29044;SDS011;16133;49.486;12.176;2023-11-21T01:38:25;4.38;;;1.45;;
29044;SDS011;16133;49.486;12.176;2023-11-21T01:40:51;4.55;;;1.58;;
29044;SDS011;16133;49.486;12.176;2023-11-21T01:43:16;2.92;;;1.50;;
29044;SDS011;16133;49.486;12.176;2023-11-21T01:45:42;2.63;;;1.88;;
29044;SDS011;16133;49.486;12.176;2023-11-21T01:48:07;3.08;;;1.85;;
29044;SDS011;16133;49.486;12.176;2023-11-21T01:50:33;2.85;;;1.73;;
29044;SDS011;16133;49.486;12.176;2023-11-21T01:52:59;3.25;;;1.60;;
29044;SDS011;16133;49.486;12.176;2023-11-21T01:55:25;4.82;;;1.60;;
29044;SDS011;16133;49.486;12.176;2023-11-21T01:57:52;3.40;;;1.92;;
29044;SDS011;16133;49.486;12.176;2023-11-21T02:00:18;4.22;;;2.00;;
29044;SDS011;16133;49.486;12.176;2023-11-21T02:02:47;2.22;;;1.50;;
29044;SDS011;16133;49.486;12.176;2023-11-21T02:05:17;2.35;;;1.52;;
29044;SDS011;16133;49.486;12.176;2023-11-21T02:07:43;3.45;;;1.90;;
29044;SDS011;16133;49.486;12.176;2023-11-21T02:10:10;2.67;;;1.77;;
29044;SDS011;16133;49.486;12.176;2023-11-21T02:12:44;3.08;;;1.80;;
29044;SDS011;16133;49.486;12.176;2023-11-21T02:15:10;4.00;;;1.50;;
29044;SDS011;16133;49.486;12.176;2023-11-21T02:17:41;3.38;;;2.35;;
29044;SDS011;16133;49.486;12.176;2023-11-21T02:20:08;2.15;;;1.48;;
29044;SDS011;16133;49.486;12.176;2023-11-21T02:22:40;4.03;;;2.15;;
29044;SDS011;16133;49.486;12.176;2023-11-21T02:25:07;1.73;;;1.27;;
29044;SDS011;16133;49.486;12.176;2023-11-21T02:27:33;5.07;;;1.75;;
29044;SDS011;16133;49.486;12.176;2023-11-21T02:29:58;5.47;;;1.73;;
29044;SDS011;16133;49.486;12.176;2023-11-21T02:32:26;3.08;;;1.50;;
29044;SDS011;16133;49.486;12.176;2023-11-21T02:34:51;2.17;;;1.65;;
29044;SDS011;16133;49.486;12.176;2023-11-21T02:37:16;3.78;;;2.10;;
29044;SDS011;16133;49.486;12.176;2023-11-21T02:39:42;5.25;;;1.55;;
29044;SDS011;16133;49.486;12.176;2023-11-21T02:42:07;4.22;;;2.08;;
29044;SDS011;16133;49.486;12.176;2023-11-21T02:44:33;3.45;;;1.85;;
29044;SDS011;16133;49.486;12.176;2023-11-21T02:46:59;2.55;;;1.58;;
29044;SDS011;16133;49.486;12.176;2023-11-21T02:49:25;4.90;;;1.55;;
29044;SDS011;16133;49.486;12.176;2023-11-21T02:51:53;3.65;;;1.70;;
29044;SDS011;16133;49.486;12.176;2023-11-21T02:54:19;1.95;;;1.30;;
29044;SDS011;16133;49.486;12.176;2023-11-21T02:56:47;4.28;;;1.90;;
29044;SDS011;16133;49.486;12.176;2023-11-21T02:59:12;4.40;;;1.80;;
29044;SDS011;16133;49.486;12.176;2023-11-21T03:01:38;1.83;;;1.40;;
29044;SDS011;16133;49.486;12.176;2023-11-21T03:04:03;2.40;;;1.30;;
29044;SDS011;16133;49.486;12.176;2023-11-21T03:06:29;3.35;;;1.77;;
29044;SDS011;16133;49.486;12.176;2023-11-21T03:08:54;2.42;;;1.35;;
29044;SDS011;16133;49.486;12.176;2023-11-21T03:11:19;2.35;;;1.20;;
29044;SDS011;16133;49.486;12.176;2023-11-21T03:13:45;2.80;;;1.40;;
29044;SDS011;16133;49.486;12.176;2023-11-21T03:16:10;3.47;;;1.48;;
29044;SDS011;16133;49.486;12.176;2023-11-21T03:18:40;2.35;;;1.63;;
29044;SDS011;16133;49.486;12.176;2023-11-21T03:21:05;5.78;;;1.40;;
29044;SDS011;16133;49.486;12.176;2023-11-21T03:23:33;1.92;;;1.15;;
29044;SDS011;16133;49.486;12.176;2023-11-21T03:25:59;1.73;;;1.10;;
29044;SDS011;16133;49.486;12.176;2023-11-21T03:28:25;3.15;;;1.92;;
29044;SDS011;16133;49.486;12.176;2023-11-21T03:30:52;1.77;;;1.30;;
29044;SDS011;16133;49.486;12.176;2023-11-21T03:33:17;2.00;;;1.20;;
29044;SDS011;16133;49.486;12.176;2023-11-21T03:35:42;2.97;;;1.33;;
29044;SDS011;16133;49.486;12.176;2023-11-21T03:38:10;1.77;;;1.00;;
29044;SDS011;16133;49.486;12.176;2023-11-21T03:40:35;2.15;;;1.20;;
29044;SDS011;16133;49.486;12.176;2023-11-21T03:43:01;3.90;;;1.42;;
29044;SDS011;16133;49.486;12.176;2023-11-21T03:45:26;3.60;;;1.58;;
29044;SDS011;16133;49.486;12.176;2023-11-21T03:47:52;3.35;;;1.42;;
29044;SDS011;16133;49.486;12.176;2023-11-21T03:50:17;2.17;;;1.40;;
29044;SDS011;16133;49.486;12.176;2023-11-21T03:52:42;2.22;;;1.42;;
29044;SDS011;16133;49.486;12.176;2023-11-21T03:55:08;4.32;;;1.05;;
29044;SDS011;16133;49.486;12.176;2023-11-21T03:57:35;3.53;;;1.40;;
29044;SDS011;16133;49.486;12.176;2023-11-21T04:00:00;3.50;;;1.42;;
29044;SDS011;16133;49.486;12.176;2023-11-21T04:02:26;2.42;;;1.30;;
29044;SDS011;16133;49.486;12.176;2023-11-21T04:04:53;2.25;;;1.30;;
29044;SDS011;16133;49.486;12.176;2023-11-21T04:07:18;2.83;;;2.35;;
29044;SDS011;16133;49.486;12.176;2023-11-21T04:09:44;2.05;;;1.30;;
29044;SDS011;16133;49.486;12.176;2023-11-21T04:12:09;5.22;;;1.70;;
29044;SDS011;16133;49.486;12.176;2023-11-21T04:14:34;3.70;;;1.38;;
29044;SDS011;16133;49.486;12.176;2023-11-21T04:17:00;3.97;;;1.50;;
29044;SDS011;16133;49.486;12.176;2023-11-21T04:19:25;2.28;;;1.33;;
29044;SDS011;16133;49.486;12.176;2023-11-21T04:21:51;2.47;;;1.30;;
29044;SDS011;16133;49.486;12.176;2023-11-21T04:24:16;2.47;;;1.38;;
29044;SDS011;16133;49.486;12.176;2023-11-21T04:26:42;2.90;;;1.52;;
29044;SDS011;16133;49.486;12.176;2023-11-21T04:29:08;2.97;;;1.77;;
29044;SDS011;16133;49.486;12.176;2023-11-21T04:31:34;2.33;;;1.50;;
29044;SDS011;16133;49.486;12.176;2023-11-21T04:33:59;2.53;;;1.58;;
29044;SDS011;16133;49.486;12.176;2023-11-21T04:36:24;2.88;;;1.33;;
29044;SDS011;16133;49.486;12.176;2023-11-21T04:38:50;3.97;;;1.70;;
29044;SDS011;16133;49.486;12.176;2023-11-21T04:41:15;4.30;;;1.77;;
29044;SDS011;16133;49.486;12.176;2023-11-21T04:43:40;1.45;;;1.08;;
29044;SDS011;16133;49.486;12.176;2023-11-21T04:46:07;2.40;;;1.60;;
29044;SDS011;16133;49.486;12.176;2023-11-21T04:48:32;4.55;;;1.80;;
29044;SDS011;16133;49.486;12.176;2023-11-21T04:50:58;4.22;;;1.90;;
29044;SDS011;16133;49.486;12.176;2023-11-21T04:53:23;3.22;;;1.98;;
29044;SDS011;16133;49.486;12.176;2023-11-21T04:55:49;6.18;;;2.70;;
29044;SDS011;16133;49.486;12.176;2023-11-21T04:58:14;3.47;;;1.90;;
29044;SDS011;16133;49.486;12.176;2023-11-21T05:00:39;4.63;;;2.35;;
29044;SDS011;16133;49.486;12.176;2023-11-21T05:03:06;3.92;;;2.50;;
29044;SDS011;16133;49.486;12.176;2023-11-21T05:05:32;7.38;;;3.38;;
29044;SDS011;16133;49.486;12.176;2023-11-21T05:07:58;5.15;;;3.17;;
29044;SDS011;16133;49.486;12.176;2023-11-21T05:10:24;7.30;;;3.92;;
29044;SDS011;16133;49.486;12.176;2023-11-21T05:12:50;6.47;;;4.05;;
29044;SDS011;16133;49.486;12.176;2023-11-21T05:15:15;10.98;;;4.03;;
29044;SDS011;16133;49.486;12.176;2023-11-21T05:17:44;6.25;;;4.20;;
29044;SDS011;16133;49.486;12.176;2023-11-21T05:20:11;7.72;;;4.60;;
29044;SDS011;16133;49.486;12.176;2023-11-21T05:22:38;7.95;;;4.80;;
29044;SDS011;16133;49.486;12.176;2023-11-21T05:25:04;8.38;;;4.28;;
29044;SDS011;16133;49.486;12.176;2023-11-21T05:27:30;7.25;;;4.43;;
29044;SDS011;16133;49.486;12.176;2023-11-21T05:29:58;5.63;;;3.10;;
29044;SDS011;16133;49.486;12.176;2023-11-21T05:32:24;4.93;;;3.28;;
29044;SDS011;16133;49.486;12.176;2023-11-21T05:34:50;7.35;;;3.40;;
29044;SDS011;16133;49.486;12.176;2023-11-21T05:37:15;5.15;;;2.47;;
29044;SDS011;16133;49.486;12.176;2023-11-21T05:39:40;5.95;;;3.38;;
29044;SDS011;16133;49.486;12.176;2023-11-21T05:42:06;5.20;;;2.97;;
29044;SDS011;16133;49.486;12.176;2023-11-21T05:44:31;6.53;;;3.38;;
29044;SDS011;16133;49.486;12.176;2023-11-21T05:46:57;6.47;;;3.85;;
29044;SDS011;16133;49.486;12.176;2023-11-21T05:49:23;6.20;;;3.40;;
29044;SDS011;16133;49.486;12.176;2023-11-21T05:51:51;5.70;;;3.45;;
29044;SDS011;16133;49.486;12.176;2023-11-21T05:54:19;7.55;;;3.95;;
29044;SDS011;16133;49.486;12.176;2023-11-21T05:56:44;12.75;;;4.30;;
29044;SDS011;16133;49.486;12.176;2023-11-21T05:59:09;8.95;;;4.75;;
29044;SDS011;16133;49.486;12.176;2023-11-21T06:01:35;9.57;;;5.47;;
29044;SDS011;16133;49.486;12.176;2023-11-21T06:04:03;17.35;;;8.15;;
29044;SDS011;16133;49.486;12.176;2023-11-21T06:06:30;18.02;;;8.80;;
29044;SDS011;16133;49.486;12.176;2023-11-21T06:08:56;14.38;;;8.18;;
29044;SDS011;16133;49.486;12.176;2023-11-21T06:11:21;17.90;;;9.05;;
29044;SDS011;16133;49.486;12.176;2023-11-21T06:13:47;17.10;;;9.00;;
29044;SDS011;16133;49.486;12.176;2023-11-21T06:16:13;14.95;;;8.82;;
29044;SDS011;16133;49.486;12.176;2023-11-21T06:18:41;16.75;;;8.32;;
29044;SDS011;16133;49.486;12.176;2023-11-21T06:21:09;16.02;;;7.03;;
29044;SDS011;16133;49.486;12.176;2023-11-21T06:23:34;8.88;;;5.18;;
29044;SDS011;16133;49.486;12.176;2023-11-21T06:26:00;10.10;;;4.97;;
29044;SDS011;16133;49.486;12.176;2023-11-21T06:28:25;9.85;;;5.88;;
29044;SDS011;16133;49.486;12.176;2023-11-21T06:30:50;9.25;;;5.15;;
29044;SDS011;16133;49.486;12.176;2023-11-21T06:33:16;12.02;;;5.47;;
29044;SDS011;16133;49.486;12.176;2023-11-21T06:35:41;9.82;;;5.60;;
29044;SDS011;16133;49.486;12.176;2023-11-21T06:38:07;8.98;;;5.97;;
29044;SDS011;16133;49.486;12.176;2023-11-21T06:40:34;9.23;;;5.30;;
29044;SDS011;16133;49.486;12.176;2023-11-21T06:42:59;14.18;;;6.68;;
29044;SDS011;16133;49.486;12.176;2023-11-21T06:45:25;9.95;;;5.90;;
29044;SDS011;16133;49.486;12.176;2023-11-21T06:47:51;10.95;;;5.40;;
29044;SDS011;16133;49.486;12.176;2023-11-21T06:50:16;10.30;;;5.68;;
29044;SDS011;16133;49.486;12.176;2023-11-21T06:52:42;11.52;;;5.55;;
29044;SDS011;16133;49.486;12.176;2023-11-21T06:55:08;10.02;;;5.47;;
29044;SDS011;16133;49.486;12.176;2023-11-21T06:57:34;11.68;;;6.63;;
29044;SDS011;16133;49.486;12.176;2023-11-21T07:00:00;11.68;;;5.97;;
29044;SDS011;16133;49.486;12.176;2023-11-21T07:02:25;11.35;;;6.22;;
29044;SDS011;16133;49.486;12.176;2023-11-21T07:04:54;10.75;;;6.20;;
29044;SDS011;16133;49.486;12.176;2023-11-21T07:07:19;11.23;;;5.25;;
29044;SDS011;16133;49.486;12.176;2023-11-21T07:09:45;10.85;;;4.93;;
29044;SDS011;16133;49.486;12.176;2023-11-21T07:12:10;11.40;;;5.05;;
29044;SDS011;16133;49.486;12.176;2023-11-21T07:14:36;10.30;;;4.97;;
29044;SDS011;16133;49.486;12.176;2023-11-21T07:17:02;12.23;;;5.57;;
29044;SDS011;16133;49.486;12.176;2023-11-21T07:19:27;13.40;;;5.68;;
29044;SDS011;16133;49.486;12.176;2023-11-21T07:21:53;10.25;;;5.85;;
29044;SDS011;16133;49.486;12.176;2023-11-21T07:24:18;8.00;;;4.72;;
29044;SDS011;16133;49.486;12.176;2023-11-21T07:26:44;9.85;;;5.55;;
29044;SDS011;16133;49.486;12.176;2023-11-21T07:29:09;9.13;;;4.80;;
29044;SDS011;16133;49.486;12.176;2023-11-21T07:31:36;10.85;;;5.47;;
29044;SDS011;16133;49.486;12.176;2023-11-21T07:34:03;9.93;;;5.63;;
29044;SDS011;16133;49.486;12.176;2023-11-21T07:36:28;12.23;;;5.25;;
29044;SDS011;16133;49.486;12.176;2023-11-21T07:38:54;11.80;;;4.72;;
29044;SDS011;16133;49.486;12.176;2023-11-21T07:41:19;8.20;;;5.18;;
29044;SDS011;16133;49.486;12.176;2023-11-21T07:43:45;10.48;;;4.80;;
29044;SDS011;16133;49.486;12.176;2023-11-21T07:46:11;7.68;;;4.72;;
29044;SDS011;16133;49.486;12.176;2023-11-21T07:48:41;11.20;;;5.72;;
29044;SDS011;16133;49.486;12.176;2023-11-21T07:51:08;9.13;;;5.43;;
29044;SDS011;16133;49.486;12.176;2023-11-21T07:53:34;12.57;;;6.28;;
29044;SDS011;16133;49.486;12.176;2023-11-21T07:56:04;13.50;;;6.55;;
29044;SDS011;16133;49.486;12.176;2023-11-21T07:58:31;14.25;;;6.65;;
29044;SDS011;16133;49.486;12.176;2023-11-21T08:01:00;10.93;;;6.05;;
29044;SDS011;16133;49.486;12.176;2023-11-21T08:03:26;9.93;;;6.43;;
29044;SDS011;16133;49.486;12.176;2023-11-21T08:05:52;13.80;;;6.32;;
29044;SDS011;16133;49.486;12.176;2023-11-21T08:08:18;12.98;;;5.32;;
29044;SDS011;16133;49.486;12.176;2023-11-21T08:10:43;7.38;;;4.57;;
29044;SDS011;16133;49.486;12.176;2023-11-21T08:13:21;10.93;;;6.03;;
29044;SDS011;16133;49.486;12.176;2023-11-21T08:15:50;9.82;;;5.15;;
29044;SDS011;16133;49.486;12.176;2023-11-21T08:18:15;9.00;;;4.80;;
29044;SDS011;16133;49.486;12.176;2023-11-21T08:20:42;9.13;;;4.95;;
29044;SDS011;16133;49.486;12.176;2023-11-21T08:23:08;10.43;;;4.80;;
29044;SDS011;16133;49.486;12.176;2023-11-21T08:25:33;9.63;;;4.60;;
29044;SDS011;16133;49.486;12.176;2023-11-21T08:27:59;8.48;;;5.45;;
29044;SDS011;16133;49.486;12.176;2023-11-21T08:30:25;9.13;;;4.88;;
29044;SDS011;16133;49.486;12.176;2023-11-21T08:32:52;12.10;;;5.82;;
29044;SDS011;16133;49.486;12.176;2023-11-21T08:35:18;10.90;;;5.55;;
29044;SDS011;16133;49.486;12.176;2023-11-21T08:37:44;11.45;;;5.18;;
29044;SDS011;16133;49.486;12.176;2023-11-21T08:40:10;10.70;;;5.22;;
29044;SDS011;16133;49.486;12.176;2023-11-21T08:42:37;8.38;;;4.85;;
29044;SDS011;16133;49.486;12.176;2023-11-21T08:45:02;8.07;;;4.85;;
29044;SDS011;16133;49.486;12.176;2023-11-21T08:47:29;8.52;;;4.60;;
29044;SDS011;16133;49.486;12.176;2023-11-21T08:49:54;10.13;;;4.82;;
29044;SDS011;16133;49.486;12.176;2023-11-21T08:52:19;10.02;;;4.30;;
29044;SDS011;16133;49.486;12.176;2023-11-21T08:54:49;7.45;;;3.85;;
29044;SDS011;16133;49.486;12.176;2023-11-21T08:57:21;8.57;;;4.53;;
29044;SDS011;16133;49.486;12.176;2023-11-21T08:59:49;7.32;;;4.30;;
29044;SDS011;16133;49.486;12.176;2023-11-21T09:02:20;8.35;;;4.00;;
29044;SDS011;16133;49.486;12.176;2023-11-21T09:04:45;11.52;;;4.30;;
29044;SDS011;16133;49.486;12.176;2023-11-21T09:07:11;6.28;;;4.13;;
29044;SDS011;16133;49.486;12.176;2023-11-21T09:09:36;5.57;;;3.80;;
29044;SDS011;16133;49.486;12.176;2023-11-21T09:12:01;6.88;;;4.30;;
29044;SDS011;16133;49.486;12.176;2023-11-21T09:14:27;8.77;;;3.05;;
29044;SDS011;16133;49.486;12.176;2023-11-21T09:16:52;10.27;;;4.82;;
29044;SDS011;16133;49.486;12.176;2023-11-21T09:19:18;4.43;;;2.80;;
29044;SDS011;16133;49.486;12.176;2023-11-21T09:21:43;5.40;;;3.13;;
29044;SDS011;16133;49.486;12.176;2023-11-21T09:24:08;9.15;;;3.25;;
29044;SDS011;16133;49.486;12.176;2023-11-21T09:26:34;6.68;;;3.42;;
29044;SDS011;16133;49.486;12.176;2023-11-21T09:28:59;7.97;;;3.75;;
29044;SDS011;16133;49.486;12.176;2023-11-21T09:31:24;6.10;;;2.97;;
29044;SDS011;16133;49.486;12.176;2023-11-21T09:33:52;5.63;;;3.00;;
29044;SDS011;16133;49.486;12.176;2023-11-21T09:36:17;5.88;;;3.10;;
29044;SDS011;16133;49.486;12.176;2023-11-21T09:38:43;5.32;;;2.83;;
29044;SDS011;16133;49.486;12.176;2023-11-21T09:41:15;6.18;;;3.08;;
29044;SDS011;16133;49.486;12.176;2023-11-21T09:43:49;5.22;;;3.05;;
29044;SDS011;16133;49.486;12.176;2023-11-21T09:46:21;4.85;;;3.42;;
29044;SDS011;16133;49.486;12.176;2023-11-21T09:48:50;4.55;;;3.05;;
29044;SDS011;16133;49.486;12.176;2023-11-21T09:51:18;6.53;;;4.10;;
29044;SDS011;16133;49.486;12.176;2023-11-21T09:53:46;6.97;;;3.28;;
29044;SDS011;16133;49.486;12.176;2023-11-21T09:56:15;8.10;;;3.50;;
29044;SDS011;16133;49.486;12.176;2023-11-21T09:58:44;5.35;;;3.20;;
29044;SDS011;16133;49.486;12.176;2023-11-21T10:01:10;5.13;;;3.45;;
29044;SDS011;16133;49.486;12.176;2023-11-21T10:03:37;9.02;;;5.07;;
29044;SDS011;16133;49.486;12.176;2023-11-21T10:06:03;6.40;;;3.58;;
29044;SDS011;16133;49.486;12.176;2023-11-21T10:08:30;5.50;;;3.03;;
29044;SDS011;16133;49.486;12.176;2023-11-21T10:10:57;6.57;;;3.58;;
29044;SDS011;16133;49.486;12.176;2023-11-21T10:13:24;6.72;;;3.65;;
29044;SDS011;16133;49.486;12.176;2023-11-21T10:15:52;8.32;;;4.43;;
29044;SDS011;16133;49.486;12.176;2023-11-21T10:18:18;6.93;;;3.70;;
29044;SDS011;16133;49.486;12.176;2023-11-21T10:20:44;5.63;;;3.65;;
29044;SDS011;16133;49.486;12.176;2023-11-21T10:23:16;4.95;;;3.25;;
29044;SDS011;16133;49.486;12.176;2023-11-21T10:25:47;8.20;;;3.97;;
29044;SDS011;16133;49.486;12.176;2023-11-21T10:28:13;6.38;;;2.83;;
29044;SDS011;16133;49.486;12.176;2023-11-21T10:30:39;5.38;;;2.95;;
29044;SDS011;16133;49.486;12.176;2023-11-21T10:33:05;5.47;;;3.22;;
29044;SDS011;16133;49.486;12.176;2023-11-21T10:35:47;5.22;;;2.97;;
29044;SDS011;16133;49.486;12.176;2023-11-21T10:38:19;4.63;;;2.88;;
29044;SDS011;16133;49.486;12.176;2023-11-21T10:40:49;5.72;;;2.92;;
29044;SDS011;16133;49.486;12.176;2023-11-21T10:43:15;4.38;;;2.85;;
29044;SDS011;16133;49.486;12.176;2023-11-21T10:45:41;5.25;;;2.67;;
29044;SDS011;16133;49.486;12.176;2023-11-21T10:48:08;5.95;;;3.40;;
29044;SDS011;16133;49.486;12.176;2023-11-21T10:50:40;6.65;;;4.43;;
29044;SDS011;16133;49.486;12.176;2023-11-21T10:53:06;6.70;;;3.25;;
29044;SDS011;16133;49.486;12.176;2023-11-21T10:55:32;6.60;;;3.15;;
29044;SDS011;16133;49.486;12.176;2023-11-21T10:57:58;5.32;;;3.13;;
29044;SDS011;16133;49.486;12.176;2023-11-21T11:00:27;4.65;;;2.80;;
29044;SDS011;16133;49.486;12.176;2023-11-21T11:02:54;7.45;;;3.50;;
29044;SDS011;16133;49.486;12.176;2023-11-21T11:05:20;5.55;;;3.40;;
29044;SDS011;16133;49.486;12.176;2023-11-21T11:07:51;5.65;;;2.83;;
29044;SDS011;16133;49.486;12.176;2023-11-21T11:10:25;5.18;;;3.25;;
29044;SDS011;16133;49.486;12.176;2023-11-21T11:12:54;4.80;;;3.20;;
29044;SDS011;16133;49.486;12.176;2023-11-21T11:15:22;6.72;;;3.85;;
29044;SDS011;16133;49.486;12.176;2023-11-21T11:17:48;6.15;;;3.58;;
29044;SDS011;16133;49.486;12.176;2023-11-21T11:20:15;4.47;;;3.00;;
29044;SDS011;16133;49.486;12.176;2023-11-21T11:22:44;5.80;;;2.80;;
29044;SDS011;16133;49.486;12.176;2023-11-21T11:28:11;9.13;;;3.88;;
29044;SDS011;16133;49.486;12.176;2023-11-21T11:33:36;9.77;;;3.35;;
29044;SDS011;16133;49.486;12.176;2023-11-21T11:36:26;6.97;;;3.70;;
29044;SDS011;16133;49.486;12.176;2023-11-21T11:39:02;6.13;;;3.03;;
29044;SDS011;16133;49.486;12.176;2023-11-21T11:41:30;4.68;;;2.83;;
29044;SDS011;16133;49.486;12.176;2023-11-21T11:44:02;5.55;;;3.33;;
29044;SDS011;16133;49.486;12.176;2023-11-21T11:46:43;5.97;;;3.70;;
29044;SDS011;16133;49.486;12.176;2023-11-21T11:49:24;6.60;;;3.20;;
29044;SDS011;16133;49.486;12.176;2023-11-21T11:55:00;4.97;;;3.20;;
29044;SDS011;16133;49.486;12.176;2023-11-21T11:57:29;4.82;;;2.50;;
29044;SDS011;16133;49.486;12.176;2023-11-21T12:02:42;8.73;;;4.20;;
29044;SDS011;16133;49.486;12.176;2023-11-21T12:05:10;11.27;;;6.38;;
29044;SDS011;16133;49.486;12.176;2023-11-21T12:07:44;10.65;;;6.03;;
29044;SDS011;16133;49.486;12.176;2023-11-21T12:12:41;6.03;;;4.07;;
29044;SDS011;16133;49.486;12.176;2023-11-21T12:15:08;9.65;;;4.40;;
29044;SDS011;16133;49.486;12.176;2023-11-21T12:17:34;8.60;;;4.18;;
29044;SDS011;16133;49.486;12.176;2023-11-21T12:20:03;9.75;;;4.25;;
29044;SDS011;16133;49.486;12.176;2023-11-21T12:22:30;4.13;;;2.80;;
29044;SDS011;16133;49.486;12.176;2023-11-21T12:24:56;6.25;;;3.33;;
29044;SDS011;16133;49.486;12.176;2023-11-21T12:27:21;5.03;;;3.15;;
29044;SDS011;16133;49.486;12.176;2023-11-21T12:29:47;6.50;;;3.58;;
29044;SDS011;16133;49.486;12.176;2023-11-21T12:32:12;7.68;;;3.30;;
29044;SDS011;16133;49.486;12.176;2023-11-21T12:34:40;5.47;;;2.88;;
29044;SDS011;16133;49.486;12.176;2023-11-21T12:37:05;7.72;;;2.72;;
29044;SDS011;16133;49.486;12.176;2023-11-21T12:39:31;7.28;;;2.60;;
29044;SDS011;16133;49.486;12.176;2023-11-21T12:41:57;11.40;;;3.72;;
29044;SDS011;16133;49.486;12.176;2023-11-21T12:44:22;4.43;;;2.20;;
29044;SDS011;16133;49.486;12.176;2023-11-21T12:46:49;1.50;;;1.40;;
29044;SDS011;16133;49.486;12.176;2023-11-21T12:49:15;4.18;;;1.23;;
29044;SDS011;16133;49.486;12.176;2023-11-21T12:51:44;1.60;;;1.08;;
29044;SDS011;16133;49.486;12.176;2023-11-21T12:54:11;2.15;;;1.08;;
29044;SDS011;16133;49.486;12.176;2023-11-21T12:56:40;3.45;;;1.30;;
29044;SDS011;16133;49.486;12.176;2023-11-21T12:59:06;3.35;;;2.08;;
29044;SDS011;16133;49.486;12.176;2023-11-21T13:01:31;4.20;;;1.80;;
29044;SDS011;16133;49.486;12.176;2023-11-21T13:03:57;3.95;;;2.15;;
29044;SDS011;16133;49.486;12.176;2023-11-21T13:06:27;6.25;;;2.40;;
29044;SDS011;16133;49.486;12.176;2023-11-21T13:08:54;3.30;;;1.80;;
29044;SDS011;16133;49.486;12.176;2023-11-21T13:11:22;1.52;;;1.00;;
29044;SDS011;16133;49.486;12.176;2023-11-21T13:13:47;1.55;;;1.10;;
29044;SDS011;16133;49.486;12.176;2023-11-21T13:16:16;2.40;;;1.35;;
29044;SDS011;16133;49.486;12.176;2023-11-21T13:18:42;4.40;;;1.35;;
29044;SDS011;16133;49.486;12.176;2023-11-21T13:21:09;3.78;;;1.55;;
29044;SDS011;16133;49.486;12.176;2023-11-21T13:23:40;6.05;;;1.90;;
29044;SDS011;16133;49.486;12.176;2023-11-21T13:26:06;5.20;;;2.03;;
29044;SDS011;16133;49.486;12.176;2023-11-21T13:28:33;4.90;;;2.25;;
29044;SDS011;16133;49.486;12.176;2023-11-21T13:31:00;3.08;;;2.00;;
29044;SDS011;16133;49.486;12.176;2023-11-21T13:33:46;5.05;;;1.95;;
29044;SDS011;16133;49.486;12.176;2023-11-21T13:36:19;11.05;;;2.38;;
29044;SDS011;16133;49.486;12.176;2023-11-21T13:38:48;6.20;;;2.80;;
29044;SDS011;16133;49.486;12.176;2023-11-21T13:41:14;4.57;;;2.13;;
29044;SDS011;16133;49.486;12.176;2023-11-21T13:43:40;2.88;;;1.77;;
29044;SDS011;16133;49.486;12.176;2023-11-21T13:46:09;4.78;;;2.22;;
29044;SDS011;16133;49.486;12.176;2023-11-21T13:48:41;2.53;;;1.63;;
29044;SDS011;16133;49.486;12.176;2023-11-21T13:51:15;2.78;;;2.30;;
29044;SDS011;16133;49.486;12.176;2023-11-21T13:53:45;3.42;;;2.00;;
29044;SDS011;16133;49.486;12.176;2023-11-21T13:56:18;4.30;;;1.90;;
29044;SDS011;16133;49.486;12.176;2023-11-21T13:58:49;2.40;;;1.60;;
29044;SDS011;16133;49.486;12.176;2023-11-21T14:01:19;3.55;;;2.25;;
29044;SDS011;16133;49.486;12.176;2023-11-21T14:04:12;4.30;;;2.20;;
29044;SDS011;16133;49.486;12.176;2023-11-21T14:06:50;5.80;;;3.00;;
29044;SDS011;16133;49.486;12.176;2023-11-21T14:09:20;4.88;;;2.78;;
29044;SDS011;16133;49.486;12.176;2023-11-21T14:14:22;4.82;;;2.28;;
29044;SDS011;16133;49.486;12.176;2023-11-21T14:16:53;3.10;;;2.03;;
29044;SDS011;16133;49.486;12.176;2023-11-21T14:19:20;4.18;;;2.58;;
29044;SDS011;16133;49.486;12.176;2023-11-21T14:21:47;6.95;;;3.60;;
29044;SDS011;16133;49.486;12.176;2023-11-21T14:24:14;7.88;;;3.85;;
29044;SDS011;16133;49.486;12.176;2023-11-21T14:26:43;5.57;;;3.80;;
29044;SDS011;16133;49.486;12.176;2023-11-21T14:29:11;8.30;;;4.72;;
29044;SDS011;16133;49.486;12.176;2023-11-21T14:31:39;6.18;;;3.60;;
29044;SDS011;16133;49.486;12.176;2023-11-21T14:34:06;8.88;;;3.65;;
29044;SDS011;16133;49.486;12.176;2023-11-21T14:36:32;7.85;;;3.80;;
29044;SDS011;16133;49.486;12.176;2023-11-21T14:38:58;7.65;;;3.85;;
29044;SDS011;16133;49.486;12.176;2023-11-21T14:41:23;7.82;;;4.70;;
29044;SDS011;16133;49.486;12.176;2023-11-21T14:43:50;9.27;;;5.57;;
29044;SDS011;16133;49.486;12.176;2023-11-21T14:46:19;8.65;;;5.03;;
29044;SDS011;16133;49.486;12.176;2023-11-21T14:48:44;4.55;;;3.13;;